createdAt,value
2018-05-23T00:00:35.940Z,15.80
2018-05-23T00:01:35.923Z,15.40
2018-05-23T00:02:35.967Z,16.80
2018-05-23T00:03:35.903Z,16.80
2018-05-23T00:04:35.875Z,16.80
2018-05-23T00:05:35.863Z,16.80
2018-05-23T00:06:35.847Z,19.80
2018-05-23T00:07:35.826Z,17.10
2018-05-23T00:08:35.866Z,16.70
2018-05-23T00:09:35.795Z,16.10
2018-05-23T00:10:35.778Z,17.20
2018-05-23T00:11:35.757Z,18.20
2018-05-23T00:12:35.746Z,17.60
2018-05-23T00:13:35.729Z,19.00
2018-05-23T00:14:35.726Z,18.60
2018-05-23T00:15:35.696Z,18.80
2018-05-23T00:16:35.679Z,18.90
2018-05-23T00:17:35.665Z,19.70
2018-05-23T00:18:35.653Z,18.90
2018-05-23T00:19:35.641Z,18.00
2018-05-23T00:20:35.614Z,18.20
2018-05-23T00:21:35.600Z,17.60
2018-05-23T00:22:35.585Z,19.10
2018-05-23T00:23:35.568Z,18.80
2018-05-23T00:24:35.563Z,19.60
2018-05-23T00:25:35.540Z,18.40
2018-05-23T00:26:35.519Z,18.10
2018-05-23T00:27:35.507Z,20.70
2018-05-23T00:28:35.487Z,21.00
2018-05-23T00:29:35.486Z,21.30
2018-05-23T00:30:35.465Z,27.20
2018-05-23T00:31:35.438Z,22.40
2018-05-23T00:32:35.422Z,21.20
2018-05-23T00:33:35.404Z,19.20
2018-05-23T00:34:35.391Z,18.90
2018-05-23T00:35:35.383Z,19.70
2018-05-23T00:36:35.358Z,20.90
2018-05-23T00:37:35.340Z,19.90
2018-05-23T00:38:35.327Z,21.10
2018-05-23T00:39:35.311Z,18.00
2018-05-23T00:40:35.307Z,17.40
2018-05-23T00:41:35.275Z,17.70
2018-05-23T00:42:35.258Z,18.60
2018-05-23T00:43:35.242Z,18.40
2018-05-23T00:44:35.227Z,16.70
2018-05-23T00:45:35.223Z,17.30
2018-05-23T00:46:35.195Z,19.00
2018-05-23T00:47:35.182Z,18.60
2018-05-23T00:48:35.166Z,18.40
2018-05-23T00:49:35.147Z,19.90
2018-05-23T00:50:35.142Z,20.90
2018-05-23T00:51:35.119Z,21.90
2018-05-23T00:52:35.098Z,24.00
2018-05-23T00:53:35.088Z,17.50
2018-05-23T00:54:35.068Z,19.90
2018-05-23T00:55:35.072Z,20.60
2018-05-23T00:56:35.033Z,29.40
2018-05-23T00:57:35.023Z,18.50
2018-05-23T00:58:35.000Z,18.20
2018-05-23T00:59:34.982Z,17.00
2018-05-23T01:00:34.969Z,18.50
2018-05-23T01:01:34.967Z,18.80
2018-05-23T01:02:34.941Z,27.80
2018-05-23T01:03:34.916Z,22.90
2018-05-23T01:04:34.903Z,21.20
2018-05-23T01:05:34.886Z,21.60
2018-05-23T01:06:34.883Z,21.70
2018-05-23T01:07:34.854Z,23.60
2018-05-23T01:08:34.847Z,23.00
2018-05-23T01:09:34.822Z,24.60
2018-05-23T01:10:34.808Z,24.90
2018-05-23T01:11:34.798Z,22.40
2018-05-23T01:12:34.771Z,22.50
2018-05-23T01:13:34.755Z,21.30
2018-05-23T01:14:34.739Z,22.80
2018-05-23T01:15:34.721Z,23.80
2018-05-23T01:16:34.721Z,20.60
2018-05-23T01:17:34.691Z,22.50
2018-05-23T01:18:34.670Z,20.60
2018-05-23T01:19:34.657Z,21.00
2018-05-23T01:20:34.640Z,21.60
2018-05-23T01:21:34.630Z,20.70
2018-05-23T01:22:34.620Z,18.90
2018-05-23T01:23:34.595Z,17.40
2018-05-23T01:24:34.578Z,19.40
2018-05-23T01:25:34.560Z,20.10
2018-05-23T01:26:34.542Z,20.30
2018-05-23T01:27:34.536Z,22.20
2018-05-23T01:28:34.509Z,22.20
2018-05-23T01:29:34.490Z,27.80
2018-05-23T01:30:34.477Z,24.50
2018-05-23T01:31:34.464Z,25.10
2018-05-23T01:32:34.464Z,28.50
2018-05-23T01:33:34.426Z,25.10
2018-05-23T01:34:34.411Z,25.60
2018-05-23T01:35:34.395Z,25.50
2018-05-23T01:36:34.376Z,25.10
2018-05-23T01:37:34.364Z,22.60
2018-05-23T01:38:34.358Z,27.50
2018-05-23T01:39:34.327Z,22.80
2018-05-23T01:40:34.318Z,27.40
2018-05-23T01:41:34.300Z,22.50
2018-05-23T01:42:34.284Z,21.50
2018-05-23T01:43:34.277Z,22.50
2018-05-23T01:44:34.245Z,18.80
2018-05-23T01:45:34.232Z,21.70
2018-05-23T01:46:34.214Z,27.60
2018-05-23T01:47:34.194Z,23.20
2018-05-23T01:48:34.193Z,25.60
2018-05-23T01:49:34.165Z,22.70
2018-05-23T01:50:34.149Z,24.70
2018-05-23T01:51:34.131Z,23.00
2018-05-23T01:52:34.116Z,24.30
2018-05-23T01:53:34.119Z,22.30
2018-05-23T01:54:34.083Z,21.60
2018-05-23T01:55:34.068Z,18.40
2018-05-23T01:56:34.049Z,20.40
2018-05-23T01:57:34.043Z,19.50
2018-05-23T01:58:34.013Z,19.60
2018-05-23T01:59:34.010Z,20.50
2018-05-23T02:00:33.986Z,21.60
2018-05-23T02:01:33.964Z,21.00
2018-05-23T02:02:33.950Z,21.70
2018-05-23T02:03:33.931Z,24.10
2018-05-23T02:04:33.935Z,24.50
2018-05-23T02:05:33.907Z,25.40
2018-05-23T02:06:33.882Z,25.90
2018-05-23T02:07:33.867Z,26.50
2018-05-23T02:08:33.848Z,25.60
2018-05-23T02:09:33.844Z,28.10
2018-05-23T02:10:33.818Z,28.20
2018-05-23T02:11:33.800Z,26.80
2018-05-23T02:12:33.786Z,22.90
2018-05-23T02:13:33.766Z,22.40
2018-05-23T02:14:33.764Z,20.60
2018-05-23T02:15:33.733Z,22.80
2018-05-23T02:16:33.713Z,21.70
2018-05-23T02:17:33.700Z,23.10
2018-05-23T02:18:33.750Z,21.00
2018-05-23T02:19:33.677Z,19.90
2018-05-23T02:20:33.650Z,20.40
2018-05-23T02:21:33.634Z,22.90
2018-05-23T02:22:33.620Z,25.60
2018-05-23T02:23:33.599Z,24.10
2018-05-23T02:24:33.602Z,26.50
2018-05-23T02:25:33.570Z,22.90
2018-05-23T02:26:33.549Z,22.80
2018-05-23T02:27:33.531Z,23.10
2018-05-23T02:28:33.519Z,24.60
2018-05-23T02:29:33.514Z,21.80
2018-05-23T02:30:33.498Z,22.90
2018-05-23T02:31:33.471Z,25.50
2018-05-23T02:32:33.451Z,25.10
2018-05-23T02:33:33.432Z,26.20
2018-05-23T02:34:33.515Z,26.00
2018-05-23T02:35:33.421Z,26.10
2018-05-23T02:36:33.391Z,23.60
2018-05-23T02:37:33.366Z,21.00
2018-05-23T02:38:33.349Z,18.90
2018-05-23T02:39:33.333Z,19.20
2018-05-23T02:40:33.336Z,22.10
2018-05-23T02:41:33.302Z,23.60
2018-05-23T02:42:33.283Z,22.70
2018-05-23T02:43:33.269Z,24.50
2018-05-23T02:44:33.255Z,23.80
2018-05-23T02:45:33.228Z,24.80
2018-05-23T02:46:33.225Z,23.90
2018-05-23T02:47:33.199Z,24.00
2018-05-23T02:48:33.186Z,23.20
2018-05-23T02:49:33.167Z,20.80
2018-05-23T02:50:33.151Z,20.90
2018-05-23T02:51:33.144Z,20.30
2018-05-23T02:52:33.118Z,22.20
2018-05-23T02:53:33.103Z,19.60
2018-05-23T02:54:33.079Z,23.50
2018-05-23T02:55:33.063Z,20.90
2018-05-23T02:56:33.056Z,21.00
2018-05-23T02:57:33.031Z,21.10
2018-05-23T02:58:33.016Z,22.90
2018-05-23T02:59:32.997Z,22.20
2018-05-23T03:00:32.983Z,22.40
2018-05-23T03:01:32.981Z,23.10
2018-05-23T03:02:32.948Z,25.60
2018-05-23T03:03:32.928Z,23.20
2018-05-23T03:04:32.915Z,20.40
2018-05-23T03:05:32.901Z,22.10
2018-05-23T03:06:32.876Z,19.90
2018-05-23T03:07:32.874Z,19.40
2018-05-23T03:08:32.845Z,19.20
2018-05-23T03:09:32.830Z,19.10
2018-05-23T03:10:32.811Z,19.40
2018-05-23T03:11:32.796Z,19.20
2018-05-23T03:12:32.787Z,18.70
2018-05-23T03:13:32.764Z,19.40
2018-05-23T03:14:32.746Z,20.20
2018-05-23T03:15:32.725Z,20.50
2018-05-23T03:16:32.713Z,20.20
2018-05-23T03:17:32.705Z,20.20
2018-05-23T03:18:32.676Z,21.70
2018-05-23T03:19:32.659Z,20.80
2018-05-23T03:20:32.644Z,21.70
2018-05-23T03:21:32.631Z,22.20
2018-05-23T03:22:32.630Z,23.80
2018-05-23T03:23:32.591Z,23.70
2018-05-23T03:24:32.576Z,22.10
2018-05-23T03:25:32.559Z,23.30
2018-05-23T03:26:32.543Z,23.00
2018-05-23T03:27:32.526Z,21.80
2018-05-23T03:28:32.519Z,21.70
2018-05-23T03:29:32.492Z,20.10
2018-05-23T03:30:32.483Z,24.50
2018-05-23T03:31:32.463Z,20.10
2018-05-23T03:32:32.448Z,19.40
2018-05-23T03:33:32.434Z,17.60
2018-05-23T03:34:32.410Z,17.80
2018-05-23T03:35:32.395Z,18.00
2018-05-23T03:36:32.375Z,20.90
2018-05-23T03:37:32.359Z,19.50
2018-05-23T03:38:32.352Z,17.40
2018-05-23T03:39:32.326Z,21.50
2018-05-23T03:40:32.307Z,21.60
2018-05-23T03:41:32.289Z,20.50
2018-05-23T03:44:05.337Z,22.00
2018-05-23T03:45:05.311Z,22.90
2018-05-23T03:46:05.293Z,20.90
2018-05-23T03:47:05.275Z,23.10
2018-05-23T03:48:05.259Z,24.80
2018-05-23T03:49:05.253Z,22.50
2018-05-23T03:50:05.229Z,22.50
2018-05-23T03:51:05.215Z,22.10
2018-05-23T03:52:05.193Z,19.20
2018-05-23T03:53:05.176Z,21.40
2018-05-23T03:54:05.169Z,24.20
2018-05-23T03:55:05.141Z,23.50
2018-05-23T03:56:05.126Z,27.70
2018-05-23T03:57:05.109Z,21.70
2018-05-23T03:58:05.092Z,22.20
2018-05-23T03:59:05.090Z,21.60
2018-05-23T04:00:05.064Z,18.30
2018-05-23T04:01:05.046Z,18.90
2018-05-23T04:02:05.027Z,18.80
2018-05-23T04:03:05.009Z,20.00
2018-05-23T04:04:04.993Z,21.20
2018-05-23T04:05:04.985Z,21.30
2018-05-23T04:06:04.999Z,19.50
2018-05-23T04:07:04.943Z,25.40
2018-05-23T04:08:04.925Z,27.80
2018-05-23T04:09:04.910Z,20.50
2018-05-23T04:10:04.902Z,20.90
2018-05-23T04:11:04.876Z,19.20
2018-05-23T04:12:04.865Z,18.60
2018-05-23T04:13:04.843Z,19.40
2018-05-23T04:14:04.826Z,17.40
2018-05-23T04:15:04.826Z,18.20
2018-05-23T04:16:04.793Z,19.80
2018-05-23T04:17:04.777Z,24.50
2018-05-23T04:18:04.760Z,18.00
2018-05-23T04:19:04.755Z,18.70
2018-05-23T04:20:04.726Z,17.40
2018-05-23T04:21:04.725Z,17.40
2018-05-23T04:22:04.693Z,22.10
2018-05-23T04:23:04.677Z,20.90
2018-05-23T04:24:04.724Z,19.30
2018-05-23T04:25:04.657Z,18.00
2018-05-23T04:26:04.643Z,18.10
2018-05-23T04:27:04.610Z,21.30
2018-05-23T04:28:04.593Z,22.90
2018-05-23T04:29:04.578Z,21.90
2018-05-23T04:30:04.560Z,22.10
2018-05-23T04:31:04.547Z,21.20
2018-05-23T04:32:04.538Z,22.00
2018-05-23T04:33:04.512Z,18.10
2018-05-23T04:34:04.496Z,18.70
2018-05-23T04:35:04.480Z,16.70
2018-05-23T04:36:04.462Z,21.50
2018-05-23T04:37:04.455Z,21.30
2018-05-23T04:38:04.430Z,19.70
2018-05-23T04:39:04.415Z,19.10
2018-05-23T04:40:04.396Z,18.80
2018-05-23T04:41:04.380Z,19.30
2018-05-23T04:42:04.377Z,19.50
2018-05-23T04:43:04.349Z,18.10
2018-05-23T04:44:04.330Z,18.50
2018-05-23T04:45:04.315Z,21.50
2018-05-23T04:46:04.297Z,21.00
2018-05-23T04:47:04.293Z,19.70
2018-05-23T04:48:04.267Z,20.40
2018-05-23T04:49:04.249Z,18.50
2018-05-23T04:50:04.235Z,17.50
2018-05-23T04:51:04.216Z,17.10
2018-05-23T04:52:04.219Z,16.80
2018-05-23T04:53:04.183Z,16.50
2018-05-23T04:54:04.168Z,15.60
2018-05-23T04:55:04.154Z,18.90
2018-05-23T04:56:04.134Z,16.30
2018-05-23T04:57:04.119Z,16.70
2018-05-23T04:58:04.118Z,16.10
2018-05-23T04:59:04.086Z,14.80
2018-05-23T05:00:04.069Z,15.90
2018-05-23T05:01:04.055Z,17.30
2018-05-23T05:02:04.039Z,16.20
2018-05-23T05:03:04.032Z,16.80
2018-05-23T05:04:04.005Z,17.00
2018-05-23T05:05:03.986Z,18.50
2018-05-23T05:06:03.971Z,18.70
2018-05-23T05:07:03.954Z,18.20
2018-05-23T05:08:03.949Z,19.90
2018-05-23T05:09:03.924Z,18.90
2018-05-23T05:10:03.953Z,18.30
2018-05-23T05:11:03.888Z,19.30
2018-05-23T05:12:03.878Z,20.50
2018-05-23T05:13:03.871Z,18.60
2018-05-23T05:14:03.840Z,18.30
2018-05-23T05:15:03.823Z,21.60
2018-05-23T05:16:03.812Z,18.30
2018-05-23T05:17:03.791Z,21.50
2018-05-23T05:18:03.775Z,18.80
2018-05-23T05:19:03.768Z,18.10
2018-05-23T05:20:03.742Z,18.10
2018-05-23T05:21:03.727Z,20.50
2018-05-23T05:22:03.710Z,18.10
2018-05-23T05:23:03.697Z,20.30
2018-05-23T05:24:03.688Z,19.00
2018-05-23T05:25:03.723Z,17.70
2018-05-23T05:26:03.645Z,18.10
2018-05-23T05:27:03.629Z,17.90
2018-05-23T05:28:03.614Z,17.50
2018-05-23T05:29:03.608Z,16.10
2018-05-23T05:30:03.581Z,15.00
2018-05-23T05:31:03.570Z,15.20
2018-05-23T05:32:03.552Z,14.20
2018-05-23T05:33:03.530Z,14.80
2018-05-23T05:34:03.531Z,13.70
2018-05-23T05:35:03.500Z,14.80
2018-05-23T05:36:03.482Z,14.30
2018-05-23T05:37:03.467Z,13.80
2018-05-23T05:38:03.452Z,14.50
2018-05-23T05:39:03.438Z,15.70
2018-05-23T05:40:03.430Z,15.20
2018-05-23T05:41:03.402Z,15.50
2018-05-23T05:42:03.387Z,14.60
2018-05-23T05:43:03.373Z,15.90
2018-05-23T05:44:03.357Z,13.50
2018-05-23T05:45:03.349Z,14.20
2018-05-23T05:46:03.323Z,13.70
2018-05-23T05:47:03.346Z,15.50
2018-05-23T05:48:03.291Z,13.90
2018-05-23T05:49:03.276Z,14.10
2018-05-23T05:50:03.270Z,13.40
2018-05-23T05:51:03.248Z,12.10
2018-05-23T05:52:03.227Z,13.10
2018-05-23T05:53:03.213Z,12.60
2018-05-23T05:54:03.199Z,12.60
2018-05-23T05:55:03.200Z,13.20
2018-05-23T05:56:03.164Z,12.50
2018-05-23T05:57:03.148Z,13.20
2018-05-23T05:58:03.133Z,11.90
2018-05-23T05:59:03.117Z,11.90
2018-05-23T06:00:03.099Z,50.40
2018-05-23T06:01:03.095Z,29.30
2018-05-23T06:02:03.127Z,22.50
2018-05-23T06:03:03.054Z,28.10
2018-05-23T06:04:03.040Z,18.70
2018-05-23T06:05:03.022Z,19.80
2018-05-23T06:06:03.018Z,18.40
2018-05-23T06:07:02.992Z,16.20
2018-05-23T06:08:02.976Z,15.80
2018-05-23T06:09:02.958Z,15.00
2018-05-23T06:10:02.945Z,19.10
2018-05-23T06:11:02.941Z,19.80
2018-05-23T06:12:02.913Z,19.90
2018-05-23T06:13:02.896Z,22.40
2018-05-23T06:14:02.882Z,24.30
2018-05-23T06:15:02.879Z,20.10
2018-05-23T06:16:02.921Z,18.70
2018-05-23T06:17:02.836Z,21.20
2018-05-23T06:18:02.824Z,18.90
2018-05-23T06:19:02.805Z,19.20
2018-05-23T06:20:02.791Z,22.00
2018-05-23T06:21:02.790Z,21.00
2018-05-23T06:22:02.760Z,22.90
2018-05-23T06:23:02.748Z,19.80
2018-05-23T06:24:02.730Z,24.30
2018-05-23T06:25:02.715Z,23.90
2018-05-23T06:26:02.699Z,27.90
2018-05-23T06:27:02.698Z,25.50
2018-05-23T06:28:02.671Z,23.30
2018-05-23T06:29:02.655Z,26.00
2018-05-23T06:30:02.641Z,33.10
2018-05-23T06:31:02.625Z,34.10
2018-05-23T06:32:02.618Z,37.10
2018-05-23T06:33:02.596Z,40.20
2018-05-23T06:34:02.581Z,33.70
2018-05-23T06:35:02.567Z,36.30
2018-05-23T06:36:02.554Z,25.90
2018-05-23T06:37:02.543Z,24.20
2018-05-23T06:38:02.518Z,24.60
2018-05-23T06:39:02.507Z,27.80
2018-05-23T06:40:02.490Z,29.40
2018-05-23T06:41:02.473Z,32.40
2018-05-23T06:42:02.483Z,35.70
2018-05-23T06:43:02.447Z,33.60
2018-05-23T06:44:02.432Z,33.00
2018-05-23T06:45:02.417Z,33.80
2018-05-23T06:46:02.403Z,42.40
2018-05-23T06:47:02.391Z,40.70
2018-05-23T06:48:02.387Z,43.10
2018-05-23T06:49:02.357Z,49.10
2018-05-23T06:50:02.383Z,43.80
2018-05-23T06:51:02.331Z,35.60
2018-05-23T06:52:02.313Z,33.60
2018-05-23T06:53:02.309Z,31.70
2018-05-23T06:54:02.286Z,29.60
2018-05-23T06:55:02.291Z,32.20
2018-05-23T06:56:02.256Z,35.70
2018-05-23T06:57:02.247Z,33.40
2018-05-23T06:58:02.254Z,35.20
2018-05-23T06:59:02.214Z,34.90
2018-05-23T07:00:02.203Z,37.00
2018-05-23T07:01:02.189Z,34.40
2018-05-23T07:02:02.174Z,33.90
2018-05-23T07:03:02.180Z,35.60
2018-05-23T07:04:02.145Z,37.30
2018-05-23T07:05:02.137Z,33.20
2018-05-23T07:06:02.117Z,32.20
2018-05-23T07:07:02.102Z,35.10
2018-05-23T07:08:02.115Z,34.40
2018-05-23T07:09:02.079Z,36.80
2018-05-23T07:10:02.060Z,35.70
2018-05-23T07:11:02.105Z,33.60
2018-05-23T07:12:02.036Z,34.60
2018-05-23T07:13:02.021Z,33.80
2018-05-23T07:14:02.014Z,41.20
2018-05-23T07:15:01.995Z,35.90
2018-05-23T07:16:01.975Z,38.50
2018-05-23T07:17:01.965Z,38.40
2018-05-23T07:18:02.120Z,33.80
2018-05-23T07:19:01.955Z,34.00
2018-05-23T07:20:01.925Z,35.90
2018-05-23T07:21:01.907Z,33.60
2018-05-23T07:22:01.892Z,34.20
2018-05-23T07:23:01.881Z,36.10
2018-05-23T07:24:01.940Z,34.70
2018-05-23T07:25:01.854Z,34.70
2018-05-23T07:26:01.841Z,36.40
2018-05-23T07:27:01.827Z,33.70
2018-05-23T07:28:01.810Z,33.80
2018-05-23T07:29:01.820Z,33.80
2018-05-23T07:30:01.786Z,30.80
2018-05-23T07:31:01.772Z,30.10
2018-05-23T07:32:01.760Z,30.70
2018-05-23T07:33:01.751Z,29.80
2018-05-23T07:34:01.729Z,29.50
2018-05-23T07:35:01.760Z,32.00
2018-05-23T07:36:01.703Z,30.60
2018-05-23T07:37:01.692Z,30.70
2018-05-23T07:38:01.675Z,31.00
2018-05-23T07:39:01.664Z,27.70
2018-05-23T07:40:01.660Z,27.40
2018-05-23T07:41:01.635Z,33.40
2018-05-23T07:42:01.622Z,28.10
2018-05-23T07:43:01.609Z,26.70
2018-05-23T07:44:01.597Z,31.10
2018-05-23T07:45:01.612Z,27.80
2018-05-23T07:46:01.581Z,25.60
2018-05-23T07:47:01.560Z,25.30
2018-05-23T07:48:01.545Z,24.90
2018-05-23T07:49:01.531Z,25.80
2018-05-23T07:50:01.531Z,24.40
2018-05-23T07:51:01.500Z,24.10
2018-05-23T07:52:01.496Z,26.40
2018-05-23T07:53:01.481Z,25.00
2018-05-23T07:54:01.473Z,25.20
2018-05-23T07:55:01.449Z,25.50
2018-05-23T07:56:01.444Z,26.80
2018-05-23T07:57:01.423Z,24.10
2018-05-23T07:58:01.406Z,26.30
2018-05-23T07:59:01.394Z,25.00
2018-05-23T08:00:01.380Z,24.60
2018-05-23T08:01:01.377Z,24.30
2018-05-23T08:02:01.353Z,24.50
2018-05-23T08:03:01.339Z,24.40
2018-05-23T08:04:01.326Z,23.80
2018-05-23T08:05:01.314Z,23.90
2018-05-23T08:06:01.311Z,23.90
2018-05-23T08:07:01.288Z,25.70
2018-05-23T08:08:01.273Z,26.00
2018-05-23T08:09:01.259Z,25.70
2018-05-23T08:10:01.248Z,24.60
2018-05-23T08:11:01.245Z,24.20
2018-05-23T08:12:01.218Z,22.10
2018-05-23T08:13:01.207Z,22.10
2018-05-23T08:14:01.195Z,20.30
2018-05-23T08:15:01.184Z,19.20
2018-05-23T08:16:01.188Z,19.90
2018-05-23T08:17:01.152Z,20.10
2018-05-23T08:18:01.141Z,20.80
2018-05-23T08:19:01.129Z,19.30
2018-05-23T08:20:01.115Z,19.80
2018-05-23T08:21:01.104Z,20.70
2018-05-23T08:22:01.096Z,18.80
2018-05-23T08:23:01.074Z,19.70
2018-05-23T08:24:01.062Z,20.20
2018-05-23T08:25:01.052Z,19.00
2018-05-23T08:26:01.037Z,18.60
2018-05-23T08:27:01.040Z,19.40
2018-05-23T08:28:01.013Z,19.20
2018-05-23T08:29:01.000Z,20.60
2018-05-23T08:30:00.989Z,20.40
2018-05-23T08:31:00.975Z,21.40
2018-05-23T08:32:00.980Z,20.90
2018-05-23T08:33:00.952Z,18.50
2018-05-23T08:34:00.936Z,17.20
2018-05-23T08:35:00.926Z,17.10
2018-05-23T08:36:00.912Z,16.30
2018-05-23T08:37:00.918Z,16.30
2018-05-23T08:38:00.886Z,17.00
2018-05-23T08:39:00.876Z,16.80
2018-05-23T08:40:00.866Z,16.50
2018-05-23T08:41:00.851Z,16.10
2018-05-23T08:42:00.838Z,15.30
2018-05-23T08:43:00.843Z,14.20
2018-05-23T08:44:00.811Z,15.00
2018-05-23T08:45:00.798Z,15.10
2018-05-23T08:46:00.886Z,13.80
2018-05-23T08:47:00.790Z,15.20
2018-05-23T08:48:00.780Z,14.30
2018-05-23T08:49:00.751Z,13.70
2018-05-23T08:50:00.739Z,14.20
2018-05-23T08:51:00.726Z,14.80
2018-05-23T08:52:00.713Z,14.00
2018-05-23T08:53:00.711Z,13.80
2018-05-23T08:54:00.708Z,14.20
2018-05-23T08:55:00.710Z,13.70
2018-05-23T08:56:00.659Z,12.70
2018-05-23T08:57:00.653Z,11.80
2018-05-23T08:58:00.671Z,10.70
2018-05-23T08:59:00.676Z,10.50
2018-05-23T09:00:00.624Z,11.50
2018-05-23T09:01:00.601Z,11.70
2018-05-23T09:02:00.603Z,11.80
2018-05-23T09:03:00.592Z,11.00
2018-05-23T09:04:00.582Z,10.80
2018-05-23T09:05:00.567Z,11.20
2018-05-23T09:06:00.545Z,11.20
2018-05-23T09:07:00.541Z,11.50
2018-05-23T09:08:00.534Z,13.40
2018-05-23T09:09:00.510Z,14.00
2018-05-23T09:10:00.494Z,11.20
2018-05-23T09:11:00.487Z,10.40
2018-05-23T09:12:00.485Z,11.40
2018-05-23T09:13:00.459Z,9.00
2018-05-23T09:14:00.472Z,8.80
2018-05-23T09:15:00.438Z,8.50
2018-05-23T09:16:00.422Z,8.70
2018-05-23T09:17:00.416Z,9.80
2018-05-23T09:18:00.401Z,8.60
2018-05-23T09:19:00.398Z,8.90
2018-05-23T09:20:00.381Z,8.30
2018-05-23T09:21:00.367Z,9.50
2018-05-23T09:22:00.356Z,8.80
2018-05-23T09:23:00.342Z,9.10
2018-05-23T09:24:00.347Z,9.30
2018-05-23T09:25:00.317Z,8.70
2018-05-23T09:26:00.306Z,8.10
2018-05-23T09:27:00.295Z,8.70
2018-05-23T09:28:00.282Z,8.40
2018-05-23T09:29:00.271Z,8.40
2018-05-23T09:30:00.269Z,9.50
2018-05-23T09:31:00.247Z,8.60
2018-05-23T09:32:00.234Z,10.10
2018-05-23T09:33:00.224Z,9.60
2018-05-23T09:34:00.210Z,11.20
2018-05-23T09:35:00.214Z,8.70
2018-05-23T09:36:00.190Z,8.40
2018-05-23T09:37:00.176Z,9.80
2018-05-23T09:38:00.163Z,8.40
2018-05-23T09:39:00.151Z,8.60
2018-05-23T09:40:00.152Z,8.90
2018-05-23T09:41:00.127Z,7.90
2018-05-23T09:42:00.112Z,7.10
2018-05-23T09:43:00.104Z,8.90
2018-05-23T09:44:00.091Z,7.20
2018-05-23T09:45:00.097Z,8.50
2018-05-23T09:46:00.067Z,6.10
2018-05-23T09:47:00.054Z,6.20
2018-05-23T09:48:00.044Z,6.20
2018-05-23T09:49:00.034Z,6.60
2018-05-23T09:50:00.019Z,6.70
2018-05-23T09:51:00.019Z,5.30
2018-05-23T09:51:59.996Z,5.40
2018-05-23T09:52:59.985Z,6.80
2018-05-23T09:53:59.975Z,8.10
2018-05-23T09:55:00.045Z,5.80
2018-05-23T09:55:59.958Z,6.50
2018-05-23T09:56:59.940Z,6.00
2018-05-23T09:57:59.924Z,9.50
2018-05-23T09:58:59.915Z,9.50
2018-05-23T09:59:59.916Z,5.10
2018-05-23T10:00:59.906Z,6.50
2018-05-23T10:01:59.880Z,5.20
2018-05-23T10:02:59.864Z,5.70
2018-05-23T10:03:59.856Z,6.80
2018-05-23T10:04:59.854Z,5.40
2018-05-23T10:05:59.860Z,7.40
2018-05-23T10:06:59.820Z,5.80
2018-05-23T10:07:59.807Z,7.70
2018-05-23T10:08:59.793Z,7.50
2018-05-23T10:09:59.783Z,7.10
2018-05-23T10:10:59.770Z,6.30
2018-05-23T10:11:59.774Z,6.10
2018-05-23T10:12:59.748Z,9.00
2018-05-23T10:13:59.735Z,6.90
2018-05-23T10:14:59.730Z,8.20
2018-05-23T10:15:59.709Z,6.60
2018-05-23T10:16:59.718Z,5.90
2018-05-23T10:17:59.685Z,6.70
2018-05-23T10:18:59.671Z,8.30
2018-05-23T10:19:59.662Z,6.30
2018-05-23T10:20:59.650Z,6.50
2018-05-23T10:21:59.646Z,7.50
2018-05-23T10:22:59.623Z,7.60
2018-05-23T10:23:59.610Z,7.90
2018-05-23T10:24:59.599Z,6.80
2018-05-23T10:25:59.589Z,6.30
2018-05-23T10:26:59.581Z,6.30
2018-05-23T10:27:59.560Z,6.70
2018-05-23T10:28:59.546Z,7.00
2018-05-23T10:29:59.543Z,6.60
2018-05-23T10:30:59.524Z,7.50
2018-05-23T10:31:59.527Z,6.20
2018-05-23T10:32:59.497Z,7.90
2018-05-23T10:33:59.486Z,7.80
2018-05-23T10:34:59.475Z,9.90
2018-05-23T10:35:59.464Z,6.30
2018-05-23T10:36:59.446Z,8.30
2018-05-23T10:37:59.444Z,8.60
2018-05-23T10:38:59.475Z,9.10
2018-05-23T10:39:59.408Z,8.30
2018-05-23T10:40:59.394Z,8.90
2018-05-23T10:41:59.380Z,8.00
2018-05-23T10:42:59.384Z,9.50
2018-05-23T10:43:59.361Z,7.50
2018-05-23T10:44:59.344Z,9.10
2018-05-23T10:45:59.330Z,7.70
2018-05-23T10:46:59.319Z,8.80
2018-05-23T10:47:59.315Z,8.70
2018-05-23T10:48:59.291Z,8.70
2018-05-23T10:49:59.276Z,8.80
2018-05-23T10:50:59.263Z,9.10
2018-05-23T10:51:59.327Z,9.90
2018-05-23T10:52:59.258Z,13.70
2018-05-23T10:53:59.225Z,9.00
2018-05-23T10:54:59.211Z,8.70
2018-05-23T10:55:59.201Z,10.10
2018-05-23T10:56:59.185Z,9.30
2018-05-23T10:57:59.172Z,11.00
2018-05-23T10:58:59.170Z,10.60
2018-05-23T10:59:59.145Z,11.70
2018-05-23T11:00:59.133Z,11.60
2018-05-23T11:01:59.121Z,10.90
2018-05-23T11:02:59.138Z,10.30
2018-05-23T11:03:59.103Z,9.70
2018-05-23T11:04:59.078Z,8.60
2018-05-23T11:05:59.114Z,9.80
2018-05-23T11:06:59.052Z,8.80
2018-05-23T11:07:59.038Z,10.20
2018-05-23T11:08:59.090Z,10.80
2018-05-23T11:09:59.011Z,10.40
2018-05-23T11:10:58.998Z,10.60
2018-05-23T11:11:58.983Z,11.50
2018-05-23T11:12:58.976Z,12.70
2018-05-23T11:13:58.970Z,13.40
2018-05-23T11:14:59.025Z,12.00
2018-05-23T11:15:58.928Z,11.00
2018-05-23T11:16:58.917Z,13.20
2018-05-23T11:17:58.904Z,12.50
2018-05-23T11:18:58.903Z,11.70
2018-05-23T11:19:58.876Z,10.60
2018-05-23T11:20:58.864Z,10.40
2018-05-23T11:21:58.848Z,10.50
2018-05-23T11:22:58.835Z,11.30
2018-05-23T11:23:58.822Z,10.70
2018-05-23T11:24:58.816Z,13.20
2018-05-23T11:25:58.796Z,11.00
2018-05-23T11:26:58.781Z,10.90
2018-05-23T11:27:58.773Z,11.70
2018-05-23T11:28:58.764Z,9.40
2018-05-23T11:29:58.761Z,8.80
2018-05-23T11:30:58.727Z,8.90
2018-05-23T11:31:58.711Z,11.40
2018-05-23T11:32:58.705Z,9.80
2018-05-23T11:33:58.695Z,12.50
2018-05-23T11:34:58.715Z,9.50
2018-05-23T11:35:58.657Z,10.10
2018-05-23T11:36:58.680Z,10.60
2018-05-23T11:37:58.648Z,11.00
2018-05-23T11:38:58.643Z,10.00
2018-05-23T11:39:58.625Z,9.70
2018-05-23T11:40:58.620Z,9.00
2018-05-23T11:41:58.602Z,8.10
2018-05-23T11:42:58.593Z,12.60
2018-05-23T11:43:58.565Z,10.40
2018-05-23T11:44:58.546Z,10.20
2018-05-23T11:45:58.548Z,14.30
2018-05-23T11:46:58.518Z,10.30
2018-05-23T11:47:58.519Z,9.30
2018-05-23T11:48:58.507Z,10.00
2018-05-23T11:49:58.475Z,11.50
2018-05-23T11:50:58.503Z,9.20
2018-05-23T11:51:58.465Z,11.50
2018-05-23T11:52:58.479Z,8.40
2018-05-23T11:53:58.426Z,11.10
2018-05-23T11:54:58.431Z,10.50
2018-05-23T11:55:58.513Z,11.10
2018-05-23T11:56:58.387Z,10.50
2018-05-23T11:57:58.372Z,12.00
2018-05-23T11:58:58.363Z,10.20
2018-05-23T11:59:58.342Z,10.00
2018-05-23T12:00:58.355Z,10.40
2018-05-23T12:01:58.392Z,9.30
2018-05-23T12:02:58.322Z,11.10
2018-05-23T12:03:58.297Z,11.20
2018-05-23T12:04:58.302Z,10.90
2018-05-23T12:05:58.264Z,10.40
2018-05-23T12:06:58.266Z,11.20
2018-05-23T12:07:58.242Z,10.70
2018-05-23T12:08:58.232Z,11.20
2018-05-23T12:09:58.225Z,13.70
2018-05-23T12:10:58.208Z,12.30
2018-05-23T12:11:58.206Z,10.50
2018-05-23T12:12:58.171Z,11.50
2018-05-23T12:13:58.154Z,10.20
2018-05-23T12:14:58.145Z,11.00
2018-05-23T12:15:58.141Z,10.60
2018-05-23T12:16:58.128Z,10.30
2018-05-23T12:17:58.109Z,11.60
2018-05-23T12:18:58.100Z,13.10
2018-05-23T12:19:58.089Z,11.60
2018-05-23T12:20:58.068Z,12.90
2018-05-23T12:21:58.064Z,12.60
2018-05-23T12:22:58.038Z,11.20
2018-05-23T12:23:58.031Z,11.50
2018-05-23T12:24:58.018Z,11.40
2018-05-23T12:25:57.997Z,11.70
2018-05-23T12:26:57.988Z,11.30
2018-05-23T12:27:57.997Z,13.10
2018-05-23T12:28:57.960Z,12.20
2018-05-23T12:29:57.954Z,12.60
2018-05-23T12:30:57.945Z,11.80
2018-05-23T12:31:57.955Z,13.40
2018-05-23T12:32:57.901Z,15.00
2018-05-23T12:33:57.892Z,11.80
2018-05-23T12:34:57.920Z,13.70
2018-05-23T12:35:57.866Z,13.90
2018-05-23T12:36:57.850Z,14.00
2018-05-23T12:37:57.852Z,15.50
2018-05-23T12:38:57.854Z,13.80
2018-05-23T12:39:57.851Z,12.80
2018-05-23T12:40:57.838Z,13.50
2018-05-23T12:41:57.782Z,12.00
2018-05-23T12:42:57.788Z,12.30
2018-05-23T12:43:57.778Z,12.70
2018-05-23T12:44:57.743Z,13.00
2018-05-23T12:45:57.734Z,12.50
2018-05-23T12:46:57.749Z,15.40
2018-05-23T12:47:57.745Z,13.80
2018-05-23T12:48:57.693Z,14.80
2018-05-23T12:49:57.692Z,15.00
2018-05-23T12:50:57.668Z,15.30
2018-05-23T12:51:57.659Z,13.60
2018-05-23T12:52:57.642Z,14.20
2018-05-23T12:53:57.651Z,13.10
2018-05-23T12:54:57.619Z,13.60
2018-05-23T12:55:57.623Z,15.30
2018-05-23T12:56:57.586Z,14.00
2018-05-23T12:57:57.585Z,13.70